Time;durP1;ratioP1;P1;durP2;ratioP2;P2;SDS_P1;SDS_P2;PMS_P1;PMS_P2;Temp;Humidity;BMP_temperature;BMP_pressure;BME280_temperature;BME280_humidity;BME280_pressure;Samples;Min_cycle;Max_cycle;Signal;HPM_P1;HPM_P2
2023/02/24 00:00:30;;;;;;;15.23;9.65;;;;;;;13.13;100.00;101356.50;2091858;28;20059;-74
2023/02/24 00:01:58;;;;;;;12.90;8.32;;;;;;;13.12;100.00;101353.84;2096318;28;20044;-73
2023/02/24 00:03:20;;;;;;;14.80;9.18;;;;;;;13.11;100.00;101360.88;2095432;28;20055;-74
2023/02/24 00:04:44;;;;;;;12.85;8.68;;;;;;;13.12;100.00;101349.47;2097450;28;20063;-73
2023/02/24 00:06:10;;;;;;;19.65;14.48;;;;;;;13.07;100.00;101348.44;2094669;28;20052;-74
2023/02/24 00:07:32;;;;;;;16.63;12.40;;;;;;;13.02;100.00;101355.44;2095242;28;20481;-74
2023/02/24 00:08:55;;;;;;;16.55;10.68;;;;;;;12.98;100.00;101356.28;2094876;28;20163;-74
2023/02/24 00:10:18;;;;;;;17.40;10.77;;;;;;;12.95;100.00;101361.50;2095121;28;20374;-74
2023/02/24 00:11:42;;;;;;;16.63;10.13;;;;;;;12.94;100.00;101354.44;2094799;28;20056;-74
2023/02/24 00:13:04;;;;;;;18.42;11.75;;;;;;;12.91;100.00;101353.50;2107700;28;20103;-74
2023/02/24 00:14:29;;;;;;;29.60;19.15;;;;;;;12.89;100.00;101350.81;2105523;28;20044;-74
2023/02/24 00:16:00;;;;;;;23.73;14.93;;;;;;;12.85;100.00;101348.09;2095192;28;20049;-73
2023/02/24 00:17:26;;;;;;;25.93;18.43;;;;;;;12.79;100.00;101343.59;2087271;28;20075;-74
2023/02/24 00:18:49;;;;;;;23.20;15.20;;;;;;;12.77;100.00;101350.63;2095006;28;21171;-74
2023/02/24 00:20:15;;;;;;;16.27;9.90;;;;;;;12.74;100.00;101345.28;2094913;28;20107;-73
2023/02/24 00:21:37;;;;;;;18.27;11.88;;;;;;;12.70;100.00;101344.34;2095199;28;20045;-74
2023/02/24 00:23:00;;;;;;;18.05;11.10;;;;;;;12.67;100.00;101344.28;2094437;28;20057;-74
2023/02/24 00:24:24;;;;;;;19.00;12.18;;;;;;;12.64;100.00;101335.41;2100362;28;20054;-74
2023/02/24 00:25:46;;;;;;;20.20;14.30;;;;;;;12.60;100.00;101344.19;2092789;28;20091;-73
2023/02/24 00:27:10;;;;;;;19.77;12.20;;;;;;;12.55;100.00;101335.25;2100182;28;20056;-74
2023/02/24 00:28:32;;;;;;;16.88;12.48;;;;;;;12.49;100.00;101336.03;2090827;28;20068;-74
2023/02/24 00:29:55;;;;;;;16.10;11.88;;;;;;;12.43;100.00;101340.34;2086381;28;20045;-74
2023/02/24 00:31:18;;;;;;;16.95;10.13;;;;;;;12.37;100.00;101346.41;2096103;28;20141;-73
2023/02/24 00:32:41;;;;;;;13.48;8.95;;;;;;;12.34;100.00;101339.31;2102028;28;20039;-74
2023/02/24 00:34:02;;;;;;;13.30;8.32;;;;;;;12.34;100.00;101339.31;2110556;28;20043;-74
2023/02/24 00:35:26;;;;;;;14.65;9.07;;;;;;;12.34;100.00;101341.94;2099644;28;20676;-74
2023/02/24 00:36:49;;;;;;;15.98;8.70;;;;;;;12.32;100.00;101335.75;2086849;28;20469;-74
2023/02/24 00:38:12;;;;;;;16.63;9.88;;;;;;;12.31;100.00;101333.97;2090675;28;20401;-74
2023/02/24 00:39:39;;;;;;;16.08;9.35;;;;;;;12.30;100.00;101333.94;2094393;28;20431;-73
2023/02/24 00:41:07;;;;;;;11.77;8.15;;;;;;;12.28;100.00;101340.94;2101643;28;20048;-73
2023/02/24 00:42:29;;;;;;;15.30;9.30;;;;;;;12.23;100.00;101329.41;2094158;28;20056;-74
2023/02/24 00:43:50;;;;;;;18.80;9.98;;;;;;;12.21;100.00;101325.81;2094322;28;20048;-74
2023/02/24 00:45:15;;;;;;;14.52;8.52;;;;;;;12.17;100.00;101329.28;2087577;28;20513;-73
2023/02/24 00:46:39;;;;;;;15.50;8.82;;;;;;;12.15;100.00;101326.59;2105973;28;20052;-73
2023/02/24 00:48:03;;;;;;;19.08;10.10;;;;;;;12.12;100.00;101328.31;2088422;28;20051;-73
2023/02/24 00:49:25;;;;;;;17.00;10.18;;;;;;;12.10;100.00;101328.28;2090248;28;20037;-74
2023/02/24 00:50:51;;;;;;;34.88;21.67;;;;;;;12.03;100.00;101321.09;2098433;28;20040;-74
2023/02/24 00:52:14;;;;;;;16.17;8.65;;;;;;;12.01;100.00;101327.25;2102060;28;20062;-74
2023/02/24 00:53:38;;;;;;;13.68;7.82;;;;;;;11.96;100.00;101330.66;2101991;28;20056;-74
2023/02/24 00:55:00;;;;;;;14.77;8.25;;;;;;;11.97;100.00;101323.63;2086280;28;20041;-74
2023/02/24 00:56:24;;;;;;;12.00;7.45;;;;;;;11.97;100.00;101319.22;2083613;28;20184;-74
2023/02/24 00:57:49;;;;;;;13.77;7.95;;;;;;;11.95;100.00;101315.66;2086588;28;20059;-74
2023/02/24 00:59:12;;;;;;;12.38;7.45;;;;;;;11.96;100.00;101317.44;2100691;28;20592;-73
2023/02/24 01:00:36;;;;;;;12.88;7.90;;;;;;;11.95;100.00;101314.75;2092085;28;20113;-74
2023/02/24 01:01:58;;;;;;;10.25;6.85;;;;;;;11.94;100.00;101313.91;2100191;28;20052;-74
2023/02/24 01:03:21;;;;;;;12.05;7.00;;;;;;;11.94;100.00;101313.91;2090962;28;20041;-74
2023/02/24 01:04:43;;;;;;;13.27;8.32;;;;;;;11.94;100.00;101308.59;2093273;28;20049;-75
2023/02/24 01:06:06;;;;;;;12.07;8.25;;;;;;;11.94;100.00;101311.25;2094357;28;20044;-74
2023/02/24 01:07:28;;;;;;;11.80;7.57;;;;;;;11.93;100.00;101314.75;2093152;28;20056;-74
2023/02/24 01:08:52;;;;;;;11.80;7.43;;;;;;;11.91;100.00;101313.81;2086064;28;20067;-74
2023/02/24 01:10:17;;;;;;;11.15;7.07;;;;;;;11.90;100.00;101304.09;2091643;28;20193;-74
2023/02/24 01:13:18;;;;;;;11.05;7.28;;;;;;;11.85;100.00;101311.06;2096376;28;20071;-74
2023/02/24 01:14:41;;;;;;;12.07;8.55;;;;;;;11.84;100.00;101309.28;2090795;28;20032;-73
2023/02/24 01:16:02;;;;;;;13.30;7.95;;;;;;;11.81;100.00;101311.88;2098978;28;20081;-73
2023/02/24 01:17:25;;;;;;;13.48;8.05;;;;;;;11.81;100.00;101313.63;2101244;28;20384;-74
2023/02/24 01:18:47;;;;;;;13.23;8.52;;;;;;;11.78;100.00;101310.91;2098064;28;20063;-74
2023/02/24 01:20:15;;;;;;;;;;;;;;;11.68;100.00;101304.53;2102250;28;20499;-74
2023/02/24 01:21:38;;;;;;;12.23;7.65;;;;;;;11.67;100.00;101310.69;2094933;28;20530;-73
2023/02/24 01:23:02;;;;;;;12.57;8.38;;;;;;;11.66;100.00;101305.34;2102001;28;20070;-73
2023/02/24 01:24:23;;;;;;;12.25;9.15;;;;;;;11.63;100.00;101306.16;2090386;28;20051;-73
2023/02/24 01:25:47;;;;;;;15.05;9.15;;;;;;;11.61;100.00;101305.28;2091218;28;20052;-74
2023/02/24 01:27:10;;;;;;;14.65;9.50;;;;;;;11.57;100.00;101306.03;2089889;28;20040;-74
2023/02/24 01:28:33;;;;;;;12.98;8.13;;;;;;;11.53;100.00;101298.94;2098981;28;20123;-73
2023/02/24 01:29:55;;;;;;;17.27;10.27;;;;;;;11.48;100.00;101300.59;2096503;28;20059;-74
2023/02/24 01:31:19;;;;;;;30.90;19.60;;;;;;;11.46;100.00;101308.50;2097973;28;20031;-74
2023/02/24 01:32:41;;;;;;;28.30;18.65;;;;;;;11.44;100.00;101310.19;2093260;28;20045;-73
2023/02/24 01:34:04;;;;;;;19.40;13.13;;;;;;;11.43;100.00;101312.81;2090082;28;20385;-74
2023/02/24 01:35:26;;;;;;;22.10;13.63;;;;;;;11.41;100.00;101322.47;2094346;28;20153;-73
2023/02/24 01:36:49;;;;;;;20.75;12.90;;;;;;;11.40;100.00;101315.41;2085787;28;20087;-73
2023/02/24 01:38:15;;;;;;;20.85;13.18;;;;;;;11.38;100.00;101320.66;2091951;28;20059;-74
2023/02/24 01:39:36;;;;;;;18.42;13.30;;;;;;;11.38;100.00;101317.09;2095732;28;20036;-74
2023/02/24 01:40:59;;;;;;;17.98;12.95;;;;;;;11.37;100.00;101318.84;2105013;28;20056;-73
2023/02/24 01:42:22;;;;;;;19.20;12.70;;;;;;;11.40;100.00;101323.31;2092622;28;20089;-73
2023/02/24 01:43:57;;;;;;;16.10;9.38;;;;;;;11.41;100.00;101319.84;2091798;28;20068;-73
2023/02/24 01:45:24;;;;;;;12.57;8.43;;;;;;;11.43;100.00;101326.03;2101173;28;20071;-73
2023/02/24 01:46:49;;;;;;;11.45;7.95;;;;;;;11.43;100.00;101323.38;2092371;28;20640;-73
2023/02/24 01:48:16;;;;;;;14.27;7.55;;;;;;;11.46;100.00;101323.44;2088872;28;20515;-74
2023/02/24 01:49:41;;;;;;;12.10;7.78;;;;;;;11.47;100.00;101326.13;2094639;28;20464;-74
2023/02/24 01:51:02;;;;;;;14.90;7.68;;;;;;;11.49;100.00;101324.41;2087918;28;20047;-73
2023/02/24 01:52:30;;;;;;;12.18;7.13;;;;;;;11.51;100.00;101324.44;2085598;28;20044;-73
2023/02/24 01:53:53;;;;;;;14.10;7.40;;;;;;;11.51;100.00;101321.78;2092615;28;20128;-74
2023/02/24 01:55:19;;;;;;;10.18;7.15;;;;;;;11.52;100.00;101324.47;2089410;28;20052;-73
2023/02/24 01:56:42;;;;;;;11.63;7.03;;;;;;;11.53;100.00;101326.25;2091648;28;20037;-73
2023/02/24 01:58:14;;;;;;;11.73;7.68;;;;;;;11.52;100.00;101328.88;2091204;28;20102;-74
2023/02/24 01:59:36;;;;;;;11.93;6.90;;;;;;;11.48;100.00;101324.38;2102323;28;20668;-74
2023/02/24 02:00:59;;;;;;;11.02;6.82;;;;;;;11.46;100.00;101327.00;2089899;28;20139;-73
2023/02/24 02:02:22;;;;;;;9.88;6.55;;;;;;;11.45;100.00;101327.84;2084258;28;20582;-73
2023/02/24 02:03:45;;;;;;;11.38;7.53;;;;;;;11.42;100.00;101321.63;2093783;28;20082;-73
2023/02/24 02:05:08;;;;;;;11.55;7.60;;;;;;;11.39;100.00;101321.53;2085439;28;20401;-74
2023/02/24 02:06:31;;;;;;;12.25;7.07;;;;;;;11.33;100.00;101327.59;2099682;28;20048;-73
2023/02/24 02:07:56;;;;;;;13.05;7.65;;;;;;;11.29;100.00;101325.72;2102128;28;20361;-73
2023/02/24 02:09:18;;;;;;;13.52;8.45;;;;;;;11.26;100.00;101332.72;2094028;28;20099;-74
2023/02/24 02:10:42;;;;;;;12.63;7.53;;;;;;;11.21;100.00;101335.25;2093652;28;20417;-74
2023/02/24 02:12:05;;;;;;;13.02;7.82;;;;;;;11.20;100.00;101330.81;2091444;28;20070;-74
2023/02/24 02:13:30;;;;;;;15.82;9.07;;;;;;;11.18;100.00;101330.78;2092426;28;20048;-73
2023/02/24 02:14:57;;;;;;;15.98;8.13;;;;;;;11.20;100.00;101338.75;2099685;28;20044;-73
2023/02/24 02:16:54;;;;;;;17.83;10.25;;;;;;;11.19;100.00;101337.84;2092580;28;20052;-73
2023/02/24 02:18:29;;;;;;;13.68;9.10;;;;;;;11.18;100.00;101333.44;2096046;28;20060;-74
2023/02/24 02:20:25;;;;;;;14.63;9.23;;;;;;;11.19;100.00;101339.59;2096080;28;20051;-74
2023/02/24 02:22:18;;;;;;;13.15;8.63;;;;;;;11.14;100.00;101334.22;2062805;28;20674;-73
2023/02/24 02:23:56;;;;;;;16.63;10.13;;;;;;;11.10;100.00;101339.38;2092491;28;20093;-74
2023/02/24 02:25:29;;;;;;;14.73;8.73;;;;;;;11.08;100.00;101335.84;2095737;28;20554;-73
2023/02/24 02:27:13;;;;;;;11.93;7.88;;;;;;;11.07;100.00;101340.22;2085889;28;20048;-74
2023/02/24 02:28:59;;;;;;;14.68;8.32;;;;;;;11.07;100.00;101336.69;2088067;28;20518;-73
2023/02/24 02:30:51;;;;;;;13.15;7.75;;;;;;;11.05;100.00;101333.13;2090648;28;20132;-73
2023/02/24 02:32:42;;;;;;;14.40;8.32;;;;;;;11.03;100.00;101338.34;2092426;28;20056;-73
2023/02/24 02:34:20;;;;;;;15.95;8.93;;;;;;;11.04;100.00;101341.91;2101839;28;20047;-74
2023/02/24 02:35:48;;;;;;;12.30;7.50;;;;;;;11.05;100.00;101344.56;2095774;28;20064;-73
2023/02/24 02:37:20;;;;;;;15.43;8.45;;;;;;;11.06;100.00;101342.81;2101544;28;20479;-73
2023/02/24 02:38:51;;;;;;;15.25;8.68;;;;;;;11.06;100.00;101341.09;2085066;28;20140;-73
2023/02/24 02:40:20;;;;;;;13.80;9.38;;;;;;;11.03;100.00;101343.63;2101663;28;20138;-73
2023/02/24 02:41:53;;;;;;;16.90;10.52;;;;;;;11.03;100.00;101341.00;2101030;28;20138;-73
2023/02/24 02:43:23;;;;;;;16.52;11.50;;;;;;;11.00;100.00;101348.88;2102418;28;20043;-73
2023/02/24 02:44:55;;;;;;;16.20;11.25;;;;;;;10.98;100.00;101344.41;2093869;28;20055;-74
2023/02/24 02:46:33;;;;;;;17.25;11.02;;;;;;;10.97;100.00;101348.78;2089509;28;20127;-73
2023/02/24 02:48:02;;;;;;;12.07;8.38;;;;;;;10.96;100.00;101347.00;2085990;28;20075;-73
2023/02/24 02:49:32;;;;;;;20.20;13.43;;;;;;;10.98;100.00;101355.84;2083488;28;20034;-73
2023/02/24 02:51:03;;;;;;;21.35;15.20;;;;;;;10.97;100.00;101353.19;2093545;28;20596;-73
2023/02/24 02:52:30;;;;;;;20.48;14.45;;;;;;;10.97;100.00;101351.44;2102203;28;20044;-74
2023/02/24 02:53:59;;;;;;;14.57;9.68;;;;;;;10.95;100.00;101350.53;2090677;28;20041;-74
2023/02/24 02:55:29;;;;;;;12.93;10.18;;;;;;;10.95;100.00;101345.25;2085169;28;20485;-73
2023/02/24 02:56:59;;;;;;;15.65;11.82;;;;;;;10.93;100.00;101344.31;2094791;28;20044;-74
2023/02/24 02:58:26;;;;;;;15.63;12.07;;;;;;;10.92;100.00;101355.72;2091044;28;20040;-74
2023/02/24 02:59:53;;;;;;;15.18;10.98;;;;;;;10.91;100.00;101356.56;2088562;28;20396;-73
2023/02/24 03:01:19;;;;;;;10.82;7.57;;;;;;;10.87;100.00;101351.19;2090380;28;20049;-73
2023/02/24 03:02:45;;;;;;;12.45;8.50;;;;;;;10.83;100.00;101350.19;2093270;28;20049;-73
2023/02/24 03:04:11;;;;;;;11.25;7.85;;;;;;;10.82;100.00;101351.09;2093592;28;20048;-73
2023/02/24 03:05:45;;;;;;;10.48;7.30;;;;;;;10.82;100.00;101351.09;2086006;28;20045;-73
2023/02/24 03:07:11;;;;;;;11.80;7.30;;;;;;;10.81;100.00;101349.28;2090318;28;20049;-73
2023/02/24 03:08:39;;;;;;;11.85;7.57;;;;;;;10.82;100.00;101348.44;2104004;28;20044;-73
2023/02/24 03:10:09;;;;;;;12.75;6.93;;;;;;;10.81;100.00;101351.94;2106008;28;20044;-73
2023/02/24 03:11:32;;;;;;;11.88;7.57;;;;;;;10.81;100.00;101359.88;2097574;28;20579;-73
2023/02/24 03:12:57;;;;;;;13.68;7.93;;;;;;;10.81;100.00;101356.31;2093670;28;20539;-73
2023/02/24 03:14:23;;;;;;;13.25;7.93;;;;;;;10.81;100.00;101354.56;2095055;28;20119;-73
2023/02/24 03:15:47;;;;;;;13.65;8.35;;;;;;;10.80;100.00;101360.72;2087474;28;20037;-73
2023/02/24 03:17:16;;;;;;;13.38;7.85;;;;;;;10.78;100.00;101357.13;2087203;28;20185;-73
2023/02/24 03:18:40;;;;;;;18.08;12.25;;;;;;;10.76;100.00;101353.59;2095574;28;20492;-73
2023/02/24 03:20:12;;;;;;;21.67;19.17;;;;;;;10.76;100.00;101357.09;2103737;28;20048;-73
2023/02/24 03:21:41;;;;;;;17.10;11.93;;;;;;;10.73;100.00;101358.78;2102804;28;20051;-73
2023/02/24 03:23:10;;;;;;;11.60;8.68;;;;;;;10.73;100.00;101361.41;2090985;28;20048;-73
2023/02/24 03:24:35;;;;;;;14.40;10.20;;;;;;;10.68;100.00;101363.06;2095868;28;20129;-73
2023/02/24 03:26:06;;;;;;;11.43;8.05;;;;;;;10.66;100.00;101360.38;2089581;28;20055;-73
2023/02/24 03:27:30;;;;;;;14.15;9.52;;;;;;;10.63;100.00;101362.91;2100556;28;20066;-73
2023/02/24 03:28:59;;;;;;;14.13;8.98;;;;;;;10.62;100.00;101369.09;2093594;28;20143;-73
2023/02/24 03:30:26;;;;;;;12.57;8.20;;;;;;;10.61;100.00;101362.00;2086051;28;20029;-73
2023/02/24 03:31:57;;;;;;;12.00;8.25;;;;;;;10.63;100.00;101370.84;2100894;28;20071;-73
2023/02/24 03:33:23;;;;;;;13.02;8.57;;;;;;;10.61;100.00;101372.56;2088591;28;20077;-73
2023/02/24 03:34:54;;;;;;;12.77;8.10;;;;;;;10.61;100.00;101369.94;2095441;28;20072;-73
2023/02/24 03:36:17;;;;;;;12.45;8.00;;;;;;;10.57;100.00;101362.78;2093071;28;20192;-73
2023/02/24 03:37:39;;;;;;;12.30;7.85;;;;;;;10.57;100.00;101361.88;2099352;28;20505;-72
2023/02/24 03:39:04;;;;;;;12.30;7.82;;;;;;;10.56;100.00;101360.13;2094084;28;20053;-73
2023/02/24 03:40:33;;;;;;;13.25;8.35;;;;;;;10.57;100.00;101365.41;2091281;28;20712;-73
2023/02/24 03:42:01;;;;;;;12.85;8.57;;;;;;;10.59;100.00;101369.00;2101468;28;20148;-73
2023/02/24 03:43:28;;;;;;;14.18;8.48;;;;;;;10.59;100.00;101366.34;2087654;28;20559;-73
2023/02/24 03:44:51;;;;;;;12.93;8.48;;;;;;;10.59;100.00;101366.34;2088142;28;20123;-73
2023/02/24 03:46:15;;;;;;;13.15;8.82;;;;;;;10.60;100.00;101367.25;2092726;28;20515;-73
2023/02/24 03:47:41;;;;;;;12.05;8.30;;;;;;;10.57;100.00;101362.78;2090607;28;20051;-73
2023/02/24 03:49:11;;;;;;;14.52;8.20;;;;;;;10.55;100.00;101358.31;2100091;28;20050;-73
2023/02/24 03:50:34;;;;;;;12.18;7.95;;;;;;;10.50;100.00;101357.31;2095747;28;20574;-73
2023/02/24 03:52:12;;;;;;;15.27;8.45;;;;;;;10.46;100.00;101358.09;2089882;28;20463;-73
2023/02/24 03:53:47;;;;;;;12.82;8.80;;;;;;;10.42;100.00;101358.88;2087756;28;20044;-73
2023/02/24 03:55:26;;;;;;;17.98;9.50;;;;;;;10.39;100.00;101362.31;2095331;28;20393;-73
2023/02/24 03:57:01;;;;;;;14.15;8.50;;;;;;;10.36;100.00;101367.53;2097129;28;20043;-73
2023/02/24 03:58:37;;;;;;;13.18;8.82;;;;;;;10.34;100.00;101363.94;2095254;28;20049;-73
2023/02/24 04:00:15;;;;;;;13.57;8.73;;;;;;;10.32;100.00;101363.91;2092183;28;20052;-73
2023/02/24 04:01:49;;;;;;;11.73;7.90;;;;;;;10.31;100.00;101364.75;2104806;28;20142;-73
2023/02/24 04:03:24;;;;;;;13.45;8.80;;;;;;;10.29;100.00;101365.56;2093542;28;20917;-73
2023/02/24 04:04:54;;;;;;;13.13;7.88;;;;;;;10.27;100.00;101368.16;2087768;28;20070;-73
2023/02/24 04:06:31;;;;;;;16.65;10.98;;;;;;;10.26;100.00;101363.75;2084434;28;20037;-73
2023/02/24 04:07:59;;;;;;;18.13;13.27;;;;;;;10.24;100.00;101365.44;2094129;28;20090;-72
2023/02/24 04:09:32;;;;;;;22.05;13.93;;;;;;;10.22;100.00;101361.88;2095260;28;20060;-73
2023/02/24 04:11:04;;;;;;;17.27;11.63;;;;;;;10.19;100.00;101353.88;2095294;28;20060;-73
2023/02/24 04:12:32;;;;;;;17.35;10.95;;;;;;;10.19;100.00;101356.50;2092754;28;20520;-73
2023/02/24 04:14:05;;;;;;;17.17;11.43;;;;;;;10.17;100.00;101355.59;2086553;28;20148;-73
2023/02/24 04:15:32;;;;;;;14.50;9.90;;;;;;;10.16;100.00;101356.41;2099496;28;20467;-73
2023/02/24 04:16:59;;;;;;;16.48;9.80;;;;;;;10.17;100.00;101360.88;2092870;28;20106;-73
2023/02/24 04:18:27;;;;;;;16.27;9.10;;;;;;;10.16;100.00;101360.78;2092621;28;20110;-73
2023/02/24 04:19:55;;;;;;;13.15;7.90;;;;;;;10.16;100.00;101359.03;2093331;28;20057;-73
2023/02/24 04:21:21;;;;;;;16.17;8.73;;;;;;;10.14;100.00;101359.84;2094342;28;20047;-73
2023/02/24 04:22:48;;;;;;;13.88;9.13;;;;;;;10.13;100.00;101365.97;2086644;28;20136;-73
2023/02/24 04:24:14;;;;;;;12.90;8.45;;;;;;;10.10;100.00;101366.81;2096260;28;20414;-72
2023/02/24 04:25:44;;;;;;;14.30;8.93;;;;;;;10.10;100.00;101365.91;2088968;28;20389;-73
2023/02/24 04:27:10;;;;;;;12.70;8.40;;;;;;;10.09;100.00;101365.00;2095712;28;20530;-72
2023/02/24 04:28:35;;;;;;;13.77;8.65;;;;;;;10.07;100.00;101368.44;2088921;28;20045;-73
2023/02/24 04:30:00;;;;;;;13.60;8.18;;;;;;;10.05;100.00;101365.75;2084188;28;20078;-73
2023/02/24 04:31:27;;;;;;;12.20;8.30;;;;;;;10.05;100.00;101363.13;2086619;28;20059;-73
2023/02/24 04:32:50;;;;;;;17.42;9.30;;;;;;;10.04;100.00;101369.28;2099997;28;20071;-73
2023/02/24 04:34:18;;;;;;;17.05;9.18;;;;;;;10.04;100.00;101371.91;2094655;28;20049;-73
2023/02/24 04:35:44;;;;;;;17.40;12.18;;;;;;;10.04;100.00;101373.66;2092467;28;20048;-73
2023/02/24 04:37:06;;;;;;;15.70;10.23;;;;;;;10.02;100.00;101370.97;2090280;28;20429;-74
2023/02/24 04:38:30;;;;;;;14.85;9.50;;;;;;;10.05;100.00;101365.75;2086884;28;20049;-73
2023/02/24 04:39:51;;;;;;;16.25;10.23;;;;;;;10.08;100.00;101371.13;2093663;28;20056;-73
2023/02/24 04:41:23;;;;;;;14.75;8.93;;;;;;;10.13;100.00;101361.59;2092215;28;20044;-73
2023/02/24 04:42:49;;;;;;;16.30;8.70;;;;;;;10.14;100.00;101366.03;2084066;28;20052;-74
2023/02/24 04:44:10;;;;;;;13.40;9.07;;;;;;;10.17;100.00;101363.50;2087205;28;20050;-73
2023/02/24 04:45:33;;;;;;;13.15;8.70;;;;;;;10.19;100.00;101360.88;2085882;28;20112;-74
2023/02/24 04:46:55;;;;;;;14.88;9.38;;;;;;;10.20;100.00;101366.22;2086321;28;20053;-73
2023/02/24 04:48:19;;;;;;;;;;;;;;;10.15;100.00;101365.16;2090396;28;20053;-73
2023/02/24 04:49:40;;;;;;;16.77;9.27;;;;;;;10.17;100.00;101370.53;2095128;28;19931;-74
2023/02/24 04:51:05;;;;;;;13.93;9.18;;;;;;;10.17;100.00;101370.53;2100330;28;20052;-74
2023/02/24 04:52:26;;;;;;;14.27;9.35;;;;;;;10.18;100.00;101374.94;2101784;28;20459;-73
2023/02/24 04:53:54;;;;;;;15.07;9.63;;;;;;;10.19;100.00;101363.53;2102552;28;20466;-73
2023/02/24 04:55:16;;;;;;;15.32;10.20;;;;;;;10.18;100.00;101364.38;2103327;28;20069;-73
2023/02/24 04:56:39;;;;;;;18.67;11.48;;;;;;;10.19;100.00;101367.06;2093401;28;20048;-73
2023/02/24 04:58:02;;;;;;;17.20;11.55;;;;;;;10.20;100.00;101367.97;2083500;28;20053;-73
2023/02/24 04:59:23;;;;;;;16.17;9.93;;;;;;;10.21;100.00;101373.28;2098805;28;20078;-73
2023/02/24 05:00:47;;;;;;;13.27;9.07;;;;;;;10.22;100.00;101374.19;2095584;28;20144;-74
2023/02/24 05:02:14;;;;;;;14.55;9.68;;;;;;;10.18;100.00;101362.63;2092097;28;20045;-73
2023/02/24 05:03:40;;;;;;;14.95;9.68;;;;;;;10.16;100.00;101360.78;2088602;28;20049;-73
2023/02/24 05:05:06;;;;;;;17.70;11.48;;;;;;;10.17;100.00;101371.44;2100646;28;20055;-73
2023/02/24 05:06:29;;;;;;;30.20;26.30;;;;;;;10.17;100.00;101371.44;2103099;28;20040;-73
2023/02/24 05:07:50;;;;;;;36.30;31.33;;;;;;;10.18;100.00;101380.19;2094063;28;20377;-74
2023/02/24 05:09:15;;;;;;;60.28;53.85;;;;;;;10.16;100.00;101380.16;2092711;28;20126;-73
2023/02/24 05:10:43;;;;;;;46.30;39.55;;;;;;;10.17;100.00;101384.63;2098013;28;20595;-73
2023/02/24 05:12:08;;;;;;;24.55;18.65;;;;;;;10.22;100.00;101384.72;2093150;28;20053;-73
2023/02/24 05:13:31;;;;;;;26.15;18.75;;;;;;;10.26;100.00;101389.22;2092012;28;20067;-73
2023/02/24 05:14:53;;;;;;;17.80;13.48;;;;;;;10.31;100.00;101395.50;2094174;28;20534;-73
2023/02/24 05:16:19;;;;;;;20.65;15.77;;;;;;;10.34;100.00;101392.97;2093360;28;20059;-73
2023/02/24 05:17:41;;;;;;;20.88;15.38;;;;;;;10.38;100.00;101395.72;2099016;28;20044;-73
2023/02/24 05:22:24;;;;;;;21.48;17.23;;;;;;;10.49;100.00;101388.09;2104532;28;20100;-74
2023/02/24 05:23:46;;;;;;;23.20;18.02;;;;;;;10.53;100.00;101395.25;2102473;28;20048;-73
2023/02/24 05:25:13;;;;;;;20.25;14.43;;;;;;;10.57;100.00;101394.44;2094085;28;20074;-74
2023/02/24 05:26:37;;;;;;;30.40;25.00;;;;;;;10.61;100.00;101404.25;2091887;28;20041;-73
2023/02/24 05:28:02;;;;;;;31.17;25.05;;;;;;;10.63;100.00;101394.59;2090846;28;20037;-73
2023/02/24 05:29:26;;;;;;;35.47;26.17;;;;;;;10.66;100.00;101396.44;2100719;28;20047;-73
2023/02/24 05:30:49;;;;;;;21.52;17.65;;;;;;;10.69;100.00;101402.72;2102465;28;20056;-73
2023/02/24 05:32:10;;;;;;;28.23;21.20;;;;;;;10.74;100.00;101403.72;2092162;28;20048;-73
2023/02/24 05:33:33;;;;;;;27.23;20.13;;;;;;;10.82;100.00;101406.56;2090347;28;20659;-73
2023/02/24 05:34:56;;;;;;;21.45;16.48;;;;;;;10.90;100.00;101410.25;2107270;28;20047;-74
2023/02/24 05:36:19;;;;;;;18.23;12.00;;;;;;;10.98;100.00;101403.41;2094450;28;20044;-73
2023/02/24 05:37:42;;;;;;;18.20;12.95;;;;;;;11.08;100.00;101405.44;2099828;28;20575;-73
2023/02/24 05:39:06;;;;;;;16.83;12.85;;;;;;;11.24;100.00;101409.31;2092721;28;20059;-73
2023/02/24 05:40:29;;;;;;;19.35;14.80;;;;;;;11.41;100.00;101409.72;2097995;28;20107;-73
2023/02/24 05:41:53;;;;;;;18.00;14.40;;;;;;;11.58;100.00;101416.25;2090189;28;20092;-74
2023/02/24 05:43:18;;;;;;;16.75;12.70;;;;;;;11.74;100.00;101409.59;2099152;28;20044;-74
2023/02/24 05:44:41;;;;;;;15.82;11.25;;;;;;;11.88;100.00;101418.72;2094162;28;20439;-73
2023/02/24 05:46:03;;;;;;;13.55;11.50;;;;;;;11.99;100.00;101411.88;2098774;28;20442;-73
2023/02/24 05:47:25;;;;;;;13.63;10.57;;;;;;;12.12;100.00;101415.66;2099887;28;20150;-74
2023/02/24 05:48:50;;;;;;;13.10;9.48;;;;;;;12.25;100.00;101415.03;2085811;28;20048;-73
2023/02/24 05:50:13;;;;;;;12.52;9.07;;;;;;;12.37;100.00;101410.84;2098893;28;20054;-73
2023/02/24 05:51:37;;;;;;;12.73;8.65;;;;;;;12.51;100.00;101418.16;2099842;28;20044;-73
2023/02/24 05:53:02;;;;;;;11.18;7.57;;;;;;;12.63;100.00;101413.97;2089755;28;20233;-73
2023/02/24 05:54:28;;;;;;;11.68;7.20;;;;;;;12.76;100.00;101412.44;2083676;28;20135;-73
2023/02/24 05:55:50;;;;;;;9.73;6.72;;;;;;;12.85;100.00;101409.06;2084203;28;20130;-74
2023/02/24 05:57:15;;;;;;;8.30;6.28;;;;;;;12.86;100.00;101410.84;2082882;28;20045;-73
2023/02/24 05:58:38;;;;;;;10.15;6.60;;;;;;;12.89;100.00;101410.88;2100421;28;20044;-73
2023/02/24 06:00:09;;;;;;;12.43;8.18;;;;;;;12.89;100.00;101413.53;2096154;28;20428;-74
2023/02/24 06:01:37;;;;;;;12.57;8.93;;;;;;;12.91;100.00;101417.09;2097628;28;20101;-73
2023/02/24 06:03:07;;;;;;;11.35;7.80;;;;;;;12.92;100.00;101417.13;2094435;28;20521;-74
2023/02/24 06:04:39;;;;;;;8.75;6.85;;;;;;;12.90;100.00;101416.22;2101500;28;20044;-74
2023/02/24 06:06:05;;;;;;;8.90;6.30;;;;;;;12.92;100.00;101422.44;2099120;28;20118;-73
2023/02/24 06:07:33;;;;;;;10.00;6.88;;;;;;;12.98;100.00;101419.88;2097797;28;20036;-74
2023/02/24 06:08:54;;;;;;;10.60;6.90;;;;;;;13.04;100.00;101419.97;2093639;28;20570;-74
2023/02/24 06:10:17;;;;;;;14.63;10.25;;;;;;;13.09;100.00;101412.97;2096937;28;20048;-73
2023/02/24 06:11:41;;;;;;;12.93;9.55;;;;;;;13.21;100.00;101414.06;2093738;28;20045;-73
2023/02/24 06:13:05;;;;;;;10.75;7.53;;;;;;;13.32;100.00;101421.34;2094013;28;20044;-73
2023/02/24 06:14:29;;;;;;;10.18;7.75;;;;;;;13.35;100.00;101413.41;2089659;28;20485;-73
2023/02/24 06:15:56;;;;;;;11.68;9.02;;;;;;;13.34;100.00;101416.03;2094699;28;20048;-74
2023/02/24 06:17:17;;;;;;;12.10;9.00;;;;;;;13.41;100.00;101409.94;2095978;28;20056;-74
2023/02/24 06:18:40;;;;;;;11.63;8.48;;;;;;;13.54;100.00;101426.06;2101756;28;20052;-73
2023/02/24 06:20:12;;;;;;;14.68;11.05;;;;;;;13.73;100.00;101415.69;2101158;28;20032;-73
2023/02/24 06:21:35;;;;;;;16.13;11.07;;;;;;;13.98;100.00;101416.03;2095251;28;20488;-73
2023/02/24 06:22:57;;;;;;;11.88;8.23;;;;;;;14.22;100.00;101415.44;2091681;28;20063;-74
2023/02/24 06:24:19;;;;;;;;;;;;;;;14.38;100.00;101407.66;2094208;28;20152;-74
2023/02/24 06:25:41;;;;;;;10.32;6.32;;;;;;;14.59;100.00;101408.75;2097676;28;19931;-74
2023/02/24 06:27:09;;;;;;;7.75;5.18;;;;;;;14.77;100.00;101407.16;2087516;28;20040;-72
2023/02/24 06:28:32;;;;;;;8.35;4.78;;;;;;;14.85;100.00;101403.69;2102940;28;20430;-73
2023/02/24 06:29:56;;;;;;;9.57;5.05;;;;;;;14.93;100.00;101412.63;2084156;28;20045;-74
2023/02/24 06:31:20;;;;;;;8.27;4.90;;;;;;;15.02;100.00;101404.72;2091440;28;20044;-74
2023/02/24 06:32:43;;;;;;;7.38;4.72;;;;;;;15.11;100.00;101412.75;2097735;28;20048;-73
2023/02/24 06:34:05;;;;;;;8.70;4.90;;;;;;;15.20;100.00;101411.03;2101338;28;20169;-73
2023/02/24 06:35:27;;;;;;;9.45;5.28;;;;;;;15.28;100.00;101409.34;2101189;28;20055;-74